CST,Max TemperatureF,Mean TemperatureF,Min TemperatureF,Max Dew PointF,MeanDew PointF,Min DewpointF,Max Humidity, Mean Humidity, Min Humidity, Max Sea Level PressureIn, Mean Sea Level PressureIn, Min Sea Level PressureIn, Max VisibilityMiles, Mean VisibilityMiles, Min VisibilityMiles, Max Wind SpeedMPH, Mean Wind SpeedMPH, Max Gust SpeedMPH,PrecipitationIn, CloudCover, Events, WindDirDegrees
2012-11-1,78,57,37,43,38,34,89,61,26,30.05,29.99,29.92,10,9,4,7,1,,0.00,0,,196
2012-11-2,84,62,43,52,46,40,89,60,33,29.94,29.87,29.77,10,10,10,15,5,24,0.00,0,,155
2012-11-3,64,53,42,49,36,34,79,55,34,30.21,30.11,29.88,10,10,10,14,10,20,0.00,0,,354
2012-11-4,66,52,37,40,37,34,86,62,34,30.24,30.15,30.06,10,10,9,9,3,,0.00,0,,162
2012-11-5,54,51,46,43,40,38,77,67,57,30.14,30.08,30.00,10,10,10,21,11,28,0.00,6,Rain,329
2012-11-6,68,55,42,40,35,27,87,56,26,30.12,30.09,30.02,10,10,7,15,6,21,0.00,2,,293
2012-11-7,62,48,34,32,29,27,75,50,29,30.21,30.14,30.11,10,10,10,12,5,,0.00,0,,16
2012-11-8,72,54,37,45,38,30,73,53,33,30.11,29.99,29.87,10,10,10,24,8,34,0.00,0,,165
2012-11-9,77,68,59,59,55,44,75,64,54,29.91,29.85,29.78,10,10,10,24,18,36,0.00,1,,178
2012-11-10,75,70,64,58,55,53,75,60,48,29.89,29.80,29.71,10,10,10,33,22,43,0.00,0,,179
2012-11-11,71,52,30,59,42,24,94,84,61,30.31,29.91,29.67,10,7,2,23,15,43,0.85,7,Rain-Thunderstorm,323
2012-11-12,52,40,27,29,25,22,85,61,31,30.48,30.44,30.33,10,10,10,12,4,18,0.00,0,,245
2012-11-13,57,44,30,31,28,24,88,59,30,30.51,30.44,30.35,10,10,10,12,5,,0.00,0,,168
2012-11-14,57,44,30,32,29,26,88,62,30,30.44,30.36,30.29,10,10,10,12,3,,0.00,0,,158
2012-11-15,61,47,33,37,32,28,86,63,34,30.39,30.32,30.28,10,10,10,9,3,,0.00,0,,154
2012-11-16,64,48,32,39,35,30,92,68,34,30.46,30.40,30.37,10,9,5,6,2,,0.00,0,,78
2012-11-17,62,48,33,36,30,23,92,56,23,30.42,30.35,30.29,10,10,10,17,5,22,0.00,0,,165
2012-11-18,62,50,39,37,34,29,70,52,38,30.31,30.23,30.16,10,10,10,20,8,31,0.00,2,Rain,162
2012-11-19,69,60,50,49,46,42,83,68,47,30.19,30.14,30.09,10,10,7,18,11,24,0.11,3,Rain,185
2012-11-20,69,54,39,47,42,37,100,82,38,30.24,30.19,30.15,10,5,0,8,1,,0.00,0,Fog,351
2012-11-21,73,54,34,46,39,33,96,63,25,30.27,30.17,30.03,10,10,7,15,4,22,0.00,0,,172
2012-11-22,75,66,54,53,46,39,60,53,42,30.26,30.00,29.88,10,10,10,23,15,34,0.05,2,,187
2012-11-23,50,40,28,38,24,18,80,54,34,30.54,30.46,30.28,10,10,10,21,9,26,0.00,0,,333
2012-11-24,52,38,23,26,22,20,88,55,28,30.47,30.22,30.00,10,10,10,16,5,,0.00,0,,176
2012-11-25,61,49,37,33,29,24,73,51,32,29.98,29.93,29.87,10,10,10,13,8,,0.00,0,,145
2012-11-26,48,40,30,32,29,23,85,64,37,30.46,30.18,29.94,10,10,8,26,13,36,0.00,3,,26
2012-11-27,45,34,23,26,22,19,89,68,39,30.52,30.42,30.34,10,9,7,9,6,,0.00,0,,51
2012-11-28,57,40,23,34,28,20,88,66,39,30.45,30.34,30.21,10,10,10,10,3,,0.00,0,,159
2012-11-29,68,54,39,40,35,32,73,52,30,30.18,30.09,30.00,10,10,10,21,12,29,0.00,0,,179
2012-11-30,64,50,37,54,45,32,100,79,54,30.12,30.05,30.00,10,6,0,13,5,18,0.00,2,Fog-Snow,169